• Join FlightAware (Why Join?)
  • Login
  • US Flag 
10:40PM EDT


 

Airport Tracker/Info


-or-


 

Live Flight TrackerFlight Track Log ✈ SWA1046 ✈ 01-May-2013 ✈ KOKC - KMDW

Flight Track Log - Related Links

Times and Time Zones

All times are in EDT time to prevent confusion due to time zone crossing. See the SWA1046 flight status page for this flight to view local times or setup timezone preferences in your user account.

Time Position Orientation Groundspeed Altitude Reporting Facility
EDT Latitude Longitude Course Direction KTS MPH feet Rate Location/Type
05:56PM 35.3353 -97.5867 171° South 182 209 3,300  Level Fort Worth Center
05:57PM 35.3542 -97.5231 70° East 248 285 5,900 2,460 Climbing Fort Worth Center
05:59PM 35.4436 -97.4106 46° Northeast 255 293 10,700 2,220 Climbing Kansas City Center
06:00PM 35.4986 -97.3128 55° Northeast 323 372 12,400 2,160 Climbing Kansas City Center
06:01PM 35.5486 -97.2039 61° Northeast 357 411 15,200 2,880 Climbing Kansas City Center
06:02PM 35.6022 -97.0900 60° Northeast 376 433 18,400 2,820 Climbing Kansas City Center
06:03PM 35.6556 -96.9739 60° Northeast 387 445 21,100 2,340 Climbing Kansas City Center
06:05PM 35.7125 -96.8514 60° Northeast 405 466 23,300 2,400 Climbing Kansas City Center
06:06PM 35.7953 -96.7094 54° Northeast 425 489 26,100 2,220 Climbing Kansas City Center
06:07PM 35.8789 -96.6031 46° Northeast 432 497 28,000 1,740 Climbing Kansas City Center
06:08PM 35.9636 -96.4906 47° Northeast 443 510 29,700 1,620 Climbing Kansas City Center
06:09PM 36.0481 -96.3775 47° Northeast 450 518 31,400 1,680 Climbing Kansas City Center
06:10PM 36.1328 -96.2647 47° Northeast 449 517 33,200 1,740 Climbing Kansas City Center
06:11PM 36.2356 -96.1264 47° Northeast 450 518 35,000 1,560 Climbing Kansas City Center
06:12PM 36.3211 -96.0111 47° Northeast 451 519 36,500 1,380 Climbing Kansas City Center
06:13PM 36.4067 -95.8961 47° Northeast 451 519 37,900 720 Climbing Kansas City Center
06:14PM 36.4906 -95.7819 48° Northeast 446 513 38,000  Climbing Kansas City Center
06:15PM 36.5719 -95.6731 47° Northeast 444 511 38,000  Level Kansas City Center
06:16PM 36.6603 -95.5522 48° Northeast 443 510 38,000  Level Kansas City Center
06:17PM 36.7428 -95.4369 48° Northeast 441 507 38,000 240 Level Kansas City Center
06:18PM 36.8258 -95.3225 48° Northeast 441 507 38,600 480 Climbing Kansas City Center
06:19PM 36.9072 -95.2081 48° Northeast 439 505 39,000 180 Climbing Kansas City Center
06:20PM 37.0067 -95.0714 48° Northeast 440 506 39,000  Level Kansas City Center
06:21PM 37.0881 -94.9578 48° Northeast 438 504 39,000  Level Kansas City Center
06:22PM 37.1686 -94.8453 48° Northeast 434 499 39,000  Level Kansas City Center
06:23PM 37.2492 -94.7319 48° Northeast 433 498 39,000  Level Kansas City Center
06:24PM 37.3294 -94.6200 48° Northeast 431 496 39,000  Level Kansas City Center
06:25PM 37.4086 -94.5072 49° Northeast 430 495 39,000  Level Kansas City Center
06:26PM 37.4894 -94.3944 48° Northeast 432 497 39,000  Level Kansas City Center
06:27PM 37.5858 -94.2575 48° Northeast 433 498 39,000  Level Kansas City Center
06:28PM 37.6672 -94.1414 48° Northeast 438 504 39,000  Level Kansas City Center
06:29PM 37.7464 -94.0272 49° Northeast 439 505 39,000  Level Kansas City Center
06:30PM 37.8281 -93.9094 49° Northeast 442 509 39,000  Level Kansas City Center
06:31PM 37.9114 -93.7900 48° Northeast 447 514 39,000  Level Kansas City Center
06:32PM 37.9931 -93.6725 49° Northeast 445 512 39,000  Level Kansas City Center
06:33PM 38.0908 -93.5281 49° Northeast 447 514 39,000  Level Kansas City Center
06:35PM 38.1731 -93.4086 49° Northeast 447 514 39,000  Level Kansas City Center
06:36PM 38.2547 -93.2883 49° Northeast 447 514 39,000  Level Kansas City Center
06:37PM 38.3378 -93.1683 49° Northeast 447 514 39,000  Level Kansas City Center
06:38PM 38.4214 -93.0447 49° Northeast 453 521 39,000  Level Kansas City Center
06:39PM 38.5036 -92.9228 49° Northeast 452 520 39,000  Level Kansas City Center
06:40PM 38.5850 -92.8025 49° Northeast 446 513 39,000  Level Kansas City Center
06:41PM 38.6664 -92.6806 49° Northeast 448 516 39,000  Level Kansas City Center
06:42PM 38.7647 -92.5331 49° Northeast 450 518 39,000  Level Kansas City Center
06:43PM 38.8472 -92.4106 49° Northeast 451 519 39,000  Level Kansas City Center
06:44PM 38.9278 -92.2844 51° Northeast 452 520 39,000  Level Kansas City Center
06:45PM 39.0108 -92.1622 49° Northeast 452 520 39,000 -480 Level Kansas City Center
06:46PM 39.0922 -92.0392 50° Northeast 450 518 38,100 -960 Descending Kansas City Center
06:47PM 39.1750 -91.9086 51° Northeast 460 529 37,100 -1,020 Descending Kansas City Center
06:48PM 39.2556 -91.7850 50° Northeast 464 534 36,100 -540 Descending Kansas City Center
06:49PM 39.3567 -91.6306 50° Northeast 468 539 36,000 -60 Descending Kansas City Center
06:50PM 39.4406 -91.5000 50° Northeast 471 542 36,000  Level Kansas City Center
06:51PM 39.5072 -91.3603 58° Northeast 479 551 36,000  Level Kansas City Center
06:52PM 39.5672 -91.2036 64° Northeast 471 542 36,000  Level Kansas City Center
06:53PM 39.6261 -91.0503 63° Northeast 473 544 36,000  Level Kansas City Center
06:54PM 39.7003 -90.9128 55° Northeast 471 542 36,000  Level Kansas City Center
06:55PM 39.8044 -90.7978 40° Northeast 474 545 36,000  Level Kansas City Center
06:56PM 39.9200 -90.6669 41° Northeast 463 533 36,000 -360 Level Kansas City Center
06:57PM 40.0169 -90.5572 41° Northeast 460 529 35,300 -660 Descending Kansas City Center
06:58PM 40.1156 -90.4456 41° Northeast 467 537 34,700 -1,080 Descending Kansas City Center
06:59PM 40.1728 -90.3769 42° Northeast 469 540 33,500 -1,020 Descending Chicago Center
07:00PM 40.2717 -90.2661 41° Northeast 469 540 33,000 -1,200 Descending Chicago Center
07:01PM 40.3681 -90.1547 41° Northeast 465 535 31,100 -2,160 Descending Chicago Center
07:02PM 40.4786 -90.0264 41° Northeast 448 516 28,500 -2,100 Descending Chicago Center
07:03PM 40.5656 -89.9236 42° Northeast 428 493 26,800 -1,680 Descending Chicago Center
07:04PM 40.6481 -89.8244 42° Northeast 412 474 25,100 -1,800 Descending Chicago Center
07:05PM 40.7139 -89.7128 52° Northeast 402 463 23,200 -1,800 Descending Chicago Center
07:06PM 40.7661 -89.5947 60° Northeast 379 436 21,400 -1,920 Descending Chicago Center
07:07PM 40.8233 -89.4614 60° Northeast 369 425 19,300 -1,920 Descending Chicago Center
07:08PM 40.8722 -89.3489 60° Northeast 360 414 17,500 -1,260 Descending Chicago Center
07:09PM 40.9200 -89.2356 61° Northeast 355 409 16,800 -840 Descending Chicago Center
07:10PM 40.9783 -89.1344 53° Northeast 353 406 15,800 -2,160 Descending Chicago Center
07:11PM 41.0494 -89.0350 47° Northeast 365 420 12,400 -2,400 Descending Chicago Center
07:12PM 41.1342 -88.9133 47° Northeast 377 434 10,900 -780 Descending Chicago Center
07:13PM 41.2025 -88.8139 48° Northeast 370 426 10,900 -300 Level Chicago Center
07:14PM 41.2711 -88.7150 47° Northeast 367 422 10,400 -720 Descending Chicago Center
07:15PM 41.3331 -88.6278 47° Northeast 331 381 9,500 -1,020 Descending Chicago Center
07:17PM 41.3856 -88.5394 52° Northeast 308 354 8,300 -1,260 Descending Chicago Center
07:18PM 41.4397 -88.4328 56° Northeast 298 343 6,900 -1,380 Descending Chicago Center
07:19PM 41.4844 -88.3450 56° Northeast 291 335 5,500 -1,020 Descending Chicago Center
07:20PM 41.5294 -88.2586 55° Northeast 286 329 4,900 -300 Descending Chicago Center
07:21PM 41.5500 -88.1633 74° East 283 326 5,000  Climbing Chicago Center
07:22PM 41.5578 -88.0639 84° East 275 316 4,900 -60 Descending Chicago Center
07:23PM 41.5644 -87.9636 85° East 271 312 4,900 -240 Level Chicago Center
07:24PM 41.5836 -87.8658 75° East 273 314 4,500 -720 Descending Chicago Center
07:25PM 41.6178 -87.7733 64° Northeast 277 319 3,500 -780 Descending Chicago Center
07:26PM 41.6761 -87.6903 47° Northeast 280 322 2,900 -540 Descending Chicago Center
07:27PM 41.7333 -87.7000 353° North 250 288 2,600 -480 Descending Chicago TRACON
07:28PM 41.8000 -87.6833 11° North 179 206 2,000 -780 Descending Chicago TRACON
07:29PM 41.8000 -87.7333 270° West 143 165 1,000 -1,020 Descending Chicago TRACON